sensor_id;sensor_type;location;lat;lon;timestamp;P1;durP1;ratioP1;P2;durP2;ratioP2
29854;SDS011;16733;48.738;9.106;2023-04-06T00:02:15;6.93;;;3.00;;
29854;SDS011;16733;48.738;9.106;2023-04-06T00:08:03;7.70;;;3.03;;
29854;SDS011;16733;48.738;9.106;2023-04-06T00:10:29;4.75;;;2.38;;
29854;SDS011;16733;48.738;9.106;2023-04-06T00:12:55;7.45;;;3.75;;
29854;SDS011;16733;48.738;9.106;2023-04-06T00:15:41;5.18;;;3.15;;
29854;SDS011;16733;48.738;9.106;2023-04-06T00:18:06;5.82;;;3.05;;
29854;SDS011;16733;48.738;9.106;2023-04-06T00:20:32;12.00;;;2.97;;
29854;SDS011;16733;48.738;9.106;2023-04-06T00:22:57;5.00;;;3.05;;
29854;SDS011;16733;48.738;9.106;2023-04-06T00:25:23;6.35;;;3.75;;
29854;SDS011;16733;48.738;9.106;2023-04-06T00:31:17;6.15;;;2.63;;
29854;SDS011;16733;48.738;9.106;2023-04-06T00:33:43;6.40;;;3.83;;
29854;SDS011;16733;48.738;9.106;2023-04-06T00:36:09;6.63;;;3.25;;
29854;SDS011;16733;48.738;9.106;2023-04-06T00:41:26;5.47;;;3.55;;
29854;SDS011;16733;48.738;9.106;2023-04-06T00:43:53;6.78;;;3.60;;
29854;SDS011;16733;48.738;9.106;2023-04-06T00:49:40;4.40;;;3.03;;
29854;SDS011;16733;48.738;9.106;2023-04-06T00:52:06;6.68;;;3.78;;
29854;SDS011;16733;48.738;9.106;2023-04-06T00:54:31;4.95;;;3.38;;
29854;SDS011;16733;48.738;9.106;2023-04-06T00:56:59;11.80;;;3.35;;
29854;SDS011;16733;48.738;9.106;2023-04-06T00:59:26;4.63;;;3.60;;
29854;SDS011;16733;48.738;9.106;2023-04-06T01:01:53;9.85;;;3.83;;
29854;SDS011;16733;48.738;9.106;2023-04-06T01:04:18;6.55;;;3.97;;
29854;SDS011;16733;48.738;9.106;2023-04-06T01:06:44;7.35;;;3.53;;
29854;SDS011;16733;48.738;9.106;2023-04-06T01:09:10;8.90;;;3.90;;
29854;SDS011;16733;48.738;9.106;2023-04-06T01:11:36;7.18;;;3.53;;
29854;SDS011;16733;48.738;9.106;2023-04-06T01:14:01;8.05;;;3.33;;
29854;SDS011;16733;48.738;9.106;2023-04-06T01:16:28;6.93;;;3.28;;
29854;SDS011;16733;48.738;9.106;2023-04-06T01:18:54;6.10;;;3.50;;
29854;SDS011;16733;48.738;9.106;2023-04-06T01:21:19;7.47;;;3.42;;
29854;SDS011;16733;48.738;9.106;2023-04-06T01:23:45;9.85;;;3.65;;
29854;SDS011;16733;48.738;9.106;2023-04-06T01:26:11;7.20;;;3.35;;
29854;SDS011;16733;48.738;9.106;2023-04-06T01:31:59;6.18;;;3.20;;
29854;SDS011;16733;48.738;9.106;2023-04-06T01:37:47;7.10;;;3.40;;
29854;SDS011;16733;48.738;9.106;2023-04-06T01:40:13;6.97;;;3.30;;
29854;SDS011;16733;48.738;9.106;2023-04-06T01:46:01;6.70;;;2.92;;
29854;SDS011;16733;48.738;9.106;2023-04-06T01:48:26;8.20;;;3.53;;
29854;SDS011;16733;48.738;9.106;2023-04-06T01:54:14;7.35;;;2.97;;
29854;SDS011;16733;48.738;9.106;2023-04-06T01:56:40;6.05;;;3.38;;
29854;SDS011;16733;48.738;9.106;2023-04-06T01:59:06;8.35;;;3.40;;
29854;SDS011;16733;48.738;9.106;2023-04-06T02:01:31;6.43;;;3.58;;
29854;SDS011;16733;48.738;9.106;2023-04-06T02:03:57;5.60;;;3.47;;
29854;SDS011;16733;48.738;9.106;2023-04-06T02:09:44;8.85;;;4.35;;
29854;SDS011;16733;48.738;9.106;2023-04-06T02:12:10;9.13;;;3.67;;
29854;SDS011;16733;48.738;9.106;2023-04-06T02:14:35;6.35;;;3.58;;
29854;SDS011;16733;48.738;9.106;2023-04-06T02:17:01;4.88;;;3.58;;
29854;SDS011;16733;48.738;9.106;2023-04-06T02:19:27;7.68;;;3.88;;
29854;SDS011;16733;48.738;9.106;2023-04-06T02:21:52;10.48;;;3.58;;
29854;SDS011;16733;48.738;9.106;2023-04-06T02:27:40;5.90;;;4.07;;
29854;SDS011;16733;48.738;9.106;2023-04-06T02:30:06;7.00;;;4.00;;
29854;SDS011;16733;48.738;9.106;2023-04-06T02:32:32;7.30;;;3.63;;
29854;SDS011;16733;48.738;9.106;2023-04-06T02:34:57;11.85;;;4.22;;
29854;SDS011;16733;48.738;9.106;2023-04-06T02:37:23;7.40;;;3.75;;
29854;SDS011;16733;48.738;9.106;2023-04-06T02:39:49;7.60;;;3.85;;
29854;SDS011;16733;48.738;9.106;2023-04-06T02:42:15;6.93;;;4.35;;
29854;SDS011;16733;48.738;9.106;2023-04-06T02:48:02;5.82;;;3.15;;
29854;SDS011;16733;48.738;9.106;2023-04-06T02:53:50;6.40;;;3.72;;
29854;SDS011;16733;48.738;9.106;2023-04-06T02:56:15;7.63;;;3.60;;
29854;SDS011;16733;48.738;9.106;2023-04-06T02:58:41;6.72;;;3.97;;
29854;SDS011;16733;48.738;9.106;2023-04-06T03:01:06;10.18;;;4.18;;
29854;SDS011;16733;48.738;9.106;2023-04-06T03:03:32;7.47;;;4.07;;
29854;SDS011;16733;48.738;9.106;2023-04-06T03:09:20;8.95;;;3.42;;
29854;SDS011;16733;48.738;9.106;2023-04-06T03:11:45;7.55;;;4.45;;
29854;SDS011;16733;48.738;9.106;2023-04-06T03:14:11;16.33;;;5.32;;
29854;SDS011;16733;48.738;9.106;2023-04-06T03:17:14;8.55;;;3.67;;
29854;SDS011;16733;48.738;9.106;2023-04-06T03:19:40;8.00;;;3.83;;
29854;SDS011;16733;48.738;9.106;2023-04-06T03:22:06;6.45;;;4.10;;
29854;SDS011;16733;48.738;9.106;2023-04-06T03:24:31;7.88;;;3.67;;
29854;SDS011;16733;48.738;9.106;2023-04-06T03:26:57;9.13;;;4.00;;
29854;SDS011;16733;48.738;9.106;2023-04-06T03:32:45;7.55;;;4.55;;
29854;SDS011;16733;48.738;9.106;2023-04-06T03:35:10;9.73;;;3.78;;
29854;SDS011;16733;48.738;9.106;2023-04-06T03:37:36;9.57;;;5.30;;
29854;SDS011;16733;48.738;9.106;2023-04-06T03:40:02;7.72;;;4.50;;
29854;SDS011;16733;48.738;9.106;2023-04-06T03:42:29;15.23;;;4.05;;
29854;SDS011;16733;48.738;9.106;2023-04-06T03:44:54;8.13;;;3.80;;
29854;SDS011;16733;48.738;9.106;2023-04-06T03:47:20;6.00;;;3.85;;
29854;SDS011;16733;48.738;9.106;2023-04-06T03:49:47;7.78;;;4.53;;
29854;SDS011;16733;48.738;9.106;2023-04-06T03:52:12;8.32;;;4.30;;
29854;SDS011;16733;48.738;9.106;2023-04-06T03:54:38;7.03;;;4.25;;
29854;SDS011;16733;48.738;9.106;2023-04-06T03:57:03;8.13;;;4.45;;
29854;SDS011;16733;48.738;9.106;2023-04-06T03:59:29;6.22;;;3.70;;
29854;SDS011;16733;48.738;9.106;2023-04-06T04:01:55;6.93;;;3.63;;
29854;SDS011;16733;48.738;9.106;2023-04-06T04:07:42;8.15;;;4.05;;
29854;SDS011;16733;48.738;9.106;2023-04-06T04:10:08;7.75;;;3.72;;
29854;SDS011;16733;48.738;9.106;2023-04-06T04:15:56;9.88;;;4.22;;
29854;SDS011;16733;48.738;9.106;2023-04-06T04:18:22;12.55;;;4.18;;
29854;SDS011;16733;48.738;9.106;2023-04-06T04:20:47;8.18;;;4.43;;
29854;SDS011;16733;48.738;9.106;2023-04-06T04:23:13;11.02;;;4.35;;
29854;SDS011;16733;48.738;9.106;2023-04-06T04:25:38;8.38;;;4.43;;
29854;SDS011;16733;48.738;9.106;2023-04-06T04:28:04;11.40;;;4.63;;
29854;SDS011;16733;48.738;9.106;2023-04-06T04:30:30;7.47;;;4.10;;
29854;SDS011;16733;48.738;9.106;2023-04-06T04:32:55;12.60;;;4.32;;
29854;SDS011;16733;48.738;9.106;2023-04-06T04:35:21;6.13;;;3.65;;
29854;SDS011;16733;48.738;9.106;2023-04-06T04:41:08;6.63;;;3.83;;
29854;SDS011;16733;48.738;9.106;2023-04-06T04:43:34;6.90;;;4.35;;
29854;SDS011;16733;48.738;9.106;2023-04-06T04:46:00;7.30;;;4.40;;
29854;SDS011;16733;48.738;9.106;2023-04-06T04:48:25;7.13;;;4.15;;
29854;SDS011;16733;48.738;9.106;2023-04-06T04:50:51;10.98;;;4.30;;
29854;SDS011;16733;48.738;9.106;2023-04-06T05:00:01;7.55;;;4.20;;
29854;SDS011;16733;48.738;9.106;2023-04-06T05:02:27;10.45;;;5.13;;
29854;SDS011;16733;48.738;9.106;2023-04-06T05:08:15;8.10;;;4.15;;
29854;SDS011;16733;48.738;9.106;2023-04-06T05:10:41;9.05;;;4.10;;
29854;SDS011;16733;48.738;9.106;2023-04-06T05:16:29;9.27;;;4.40;;
29854;SDS011;16733;48.738;9.106;2023-04-06T05:18:55;8.30;;;4.72;;
29854;SDS011;16733;48.738;9.106;2023-04-06T05:21:21;8.52;;;4.45;;
29854;SDS011;16733;48.738;9.106;2023-04-06T05:27:09;7.55;;;4.47;;
29854;SDS011;16733;48.738;9.106;2023-04-06T05:29:35;9.18;;;3.97;;
29854;SDS011;16733;48.738;9.106;2023-04-06T05:32:00;11.15;;;4.75;;
29854;SDS011;16733;48.738;9.106;2023-04-06T05:37:48;10.07;;;4.25;;
29854;SDS011;16733;48.738;9.106;2023-04-06T05:46:58;10.07;;;3.55;;
29854;SDS011;16733;48.738;9.106;2023-04-06T05:49:23;6.70;;;4.07;;
29854;SDS011;16733;48.738;9.106;2023-04-06T05:51:49;9.70;;;5.10;;
29854;SDS011;16733;48.738;9.106;2023-04-06T05:54:14;7.32;;;4.20;;
29854;SDS011;16733;48.738;9.106;2023-04-06T05:56:40;11.13;;;4.85;;
29854;SDS011;16733;48.738;9.106;2023-04-06T05:59:06;10.65;;;5.28;;
29854;SDS011;16733;48.738;9.106;2023-04-06T06:04:54;10.43;;;3.95;;
29854;SDS011;16733;48.738;9.106;2023-04-06T06:10:42;9.68;;;4.55;;
29854;SDS011;16733;48.738;9.106;2023-04-06T06:13:08;11.00;;;4.97;;
29854;SDS011;16733;48.738;9.106;2023-04-06T06:15:34;9.98;;;4.50;;
29854;SDS011;16733;48.738;9.106;2023-04-06T06:21:21;12.50;;;5.53;;
29854;SDS011;16733;48.738;9.106;2023-04-06T06:27:09;10.55;;;4.57;;
29854;SDS011;16733;48.738;9.106;2023-04-06T06:29:34;10.90;;;5.43;;
29854;SDS011;16733;48.738;9.106;2023-04-06T06:32:00;17.35;;;5.57;;
29854;SDS011;16733;48.738;9.106;2023-04-06T06:34:25;9.80;;;5.32;;
29854;SDS011;16733;48.738;9.106;2023-04-06T06:36:51;16.30;;;5.82;;
29854;SDS011;16733;48.738;9.106;2023-04-06T06:52:48;6.90;;;4.45;;
29854;SDS011;16733;48.738;9.106;2023-04-06T06:58:35;14.85;;;6.10;;
29854;SDS011;16733;48.738;9.106;2023-04-06T07:01:01;13.45;;;5.55;;
29854;SDS011;16733;48.738;9.106;2023-04-06T07:06:48;11.60;;;5.50;;
29854;SDS011;16733;48.738;9.106;2023-04-06T07:09:14;11.55;;;5.85;;
29854;SDS011;16733;48.738;9.106;2023-04-06T07:11:39;9.10;;;5.45;;
29854;SDS011;16733;48.738;9.106;2023-04-06T07:14:05;10.63;;;6.00;;
29854;SDS011;16733;48.738;9.106;2023-04-06T07:16:31;12.13;;;5.80;;
29854;SDS011;16733;48.738;9.106;2023-04-06T07:18:56;11.32;;;5.68;;
29854;SDS011;16733;48.738;9.106;2023-04-06T07:21:22;9.10;;;4.90;;
29854;SDS011;16733;48.738;9.106;2023-04-06T07:23:47;11.38;;;5.47;;
29854;SDS011;16733;48.738;9.106;2023-04-06T07:26:13;7.55;;;4.50;;
29854;SDS011;16733;48.738;9.106;2023-04-06T07:28:39;9.55;;;5.15;;
29854;SDS011;16733;48.738;9.106;2023-04-06T07:34:27;9.93;;;4.85;;
29854;SDS011;16733;48.738;9.106;2023-04-06T07:40:15;9.20;;;5.18;;
29854;SDS011;16733;48.738;9.106;2023-04-06T07:42:40;7.18;;;4.55;;
29854;SDS011;16733;48.738;9.106;2023-04-06T07:45:06;8.57;;;5.20;;
29854;SDS011;16733;48.738;9.106;2023-04-06T07:47:32;8.15;;;5.32;;
29854;SDS011;16733;48.738;9.106;2023-04-06T07:49:58;10.05;;;5.22;;
29854;SDS011;16733;48.738;9.106;2023-04-06T07:52:24;9.13;;;5.32;;
29854;SDS011;16733;48.738;9.106;2023-04-06T07:54:49;11.93;;;4.65;;
29854;SDS011;16733;48.738;9.106;2023-04-06T07:57:15;7.80;;;5.00;;
29854;SDS011;16733;48.738;9.106;2023-04-06T07:59:41;8.80;;;5.25;;
29854;SDS011;16733;48.738;9.106;2023-04-06T08:02:06;11.00;;;4.93;;
29854;SDS011;16733;48.738;9.106;2023-04-06T08:04:32;12.07;;;4.72;;
29854;SDS011;16733;48.738;9.106;2023-04-06T08:06:58;8.77;;;4.95;;
29854;SDS011;16733;48.738;9.106;2023-04-06T08:09:23;9.77;;;5.07;;
29854;SDS011;16733;48.738;9.106;2023-04-06T08:11:49;10.40;;;5.18;;
29854;SDS011;16733;48.738;9.106;2023-04-06T08:17:37;12.30;;;5.75;;
29854;SDS011;16733;48.738;9.106;2023-04-06T08:20:02;7.47;;;5.13;;
29854;SDS011;16733;48.738;9.106;2023-04-06T08:22:28;12.48;;;4.75;;
29854;SDS011;16733;48.738;9.106;2023-04-06T08:28:16;8.25;;;4.65;;
29854;SDS011;16733;48.738;9.106;2023-04-06T08:30:42;8.85;;;5.20;;
29854;SDS011;16733;48.738;9.106;2023-04-06T08:36:29;8.43;;;4.90;;
29854;SDS011;16733;48.738;9.106;2023-04-06T08:38:55;9.85;;;5.47;;
29854;SDS011;16733;48.738;9.106;2023-04-06T08:41:21;11.30;;;5.70;;
29854;SDS011;16733;48.738;9.106;2023-04-06T08:43:52;7.78;;;5.30;;
29854;SDS011;16733;48.738;9.106;2023-04-06T08:46:22;10.60;;;5.20;;
29854;SDS011;16733;48.738;9.106;2023-04-06T08:48:54;9.05;;;5.00;;
29854;SDS011;16733;48.738;9.106;2023-04-06T08:51:22;9.68;;;5.38;;
29854;SDS011;16733;48.738;9.106;2023-04-06T08:57:13;8.15;;;4.85;;
29854;SDS011;16733;48.738;9.106;2023-04-06T08:59:40;11.85;;;5.75;;
29854;SDS011;16733;48.738;9.106;2023-04-06T09:02:06;7.72;;;4.38;;
29854;SDS011;16733;48.738;9.106;2023-04-06T09:04:52;6.15;;;4.38;;
29854;SDS011;16733;48.738;9.106;2023-04-06T09:07:18;10.23;;;4.90;;
29854;SDS011;16733;48.738;9.106;2023-04-06T09:09:44;9.63;;;5.30;;
29854;SDS011;16733;48.738;9.106;2023-04-06T09:12:22;9.25;;;4.55;;
29854;SDS011;16733;48.738;9.106;2023-04-06T09:18:14;6.68;;;4.07;;
29854;SDS011;16733;48.738;9.106;2023-04-06T09:20:58;7.65;;;4.47;;
29854;SDS011;16733;48.738;9.106;2023-04-06T09:23:24;7.47;;;4.38;;
29854;SDS011;16733;48.738;9.106;2023-04-06T09:25:50;7.93;;;4.90;;
29854;SDS011;16733;48.738;9.106;2023-04-06T09:28:16;9.38;;;5.00;;
29854;SDS011;16733;48.738;9.106;2023-04-06T09:30:48;14.43;;;5.82;;
29854;SDS011;16733;48.738;9.106;2023-04-06T09:33:23;11.75;;;5.15;;
29854;SDS011;16733;48.738;9.106;2023-04-06T09:35:49;9.68;;;5.40;;
29854;SDS011;16733;48.738;9.106;2023-04-06T09:38:15;9.10;;;5.13;;
29854;SDS011;16733;48.738;9.106;2023-04-06T09:40:50;7.60;;;4.68;;
29854;SDS011;16733;48.738;9.106;2023-04-06T09:43:26;8.55;;;5.03;;
29854;SDS011;16733;48.738;9.106;2023-04-06T09:49:14;8.77;;;4.78;;
29854;SDS011;16733;48.738;9.106;2023-04-06T09:51:41;8.82;;;5.70;;
29854;SDS011;16733;48.738;9.106;2023-04-06T09:54:15;6.85;;;4.32;;
29854;SDS011;16733;48.738;9.106;2023-04-06T09:56:47;7.90;;;5.40;;
29854;SDS011;16733;48.738;9.106;2023-04-06T09:59:28;10.10;;;5.13;;
29854;SDS011;16733;48.738;9.106;2023-04-06T10:02:27;10.18;;;5.57;;
29854;SDS011;16733;48.738;9.106;2023-04-06T10:08:18;9.45;;;5.00;;
29854;SDS011;16733;48.738;9.106;2023-04-06T10:10:45;7.45;;;4.88;;
29854;SDS011;16733;48.738;9.106;2023-04-06T10:13:11;9.18;;;5.28;;
29854;SDS011;16733;48.738;9.106;2023-04-06T10:15:37;8.00;;;4.90;;
29854;SDS011;16733;48.738;9.106;2023-04-06T10:18:05;7.93;;;5.07;;
29854;SDS011;16733;48.738;9.106;2023-04-06T10:20:39;9.65;;;5.20;;
29854;SDS011;16733;48.738;9.106;2023-04-06T10:23:13;9.10;;;5.10;;
29854;SDS011;16733;48.738;9.106;2023-04-06T10:29:08;7.32;;;4.03;;
29854;SDS011;16733;48.738;9.106;2023-04-06T10:31:39;9.50;;;4.65;;
29854;SDS011;16733;48.738;9.106;2023-04-06T10:34:06;9.70;;;5.90;;
29854;SDS011;16733;48.738;9.106;2023-04-06T10:39:54;8.20;;;4.60;;
29854;SDS011;16733;48.738;9.106;2023-04-06T10:42:35;9.45;;;4.97;;
29854;SDS011;16733;48.738;9.106;2023-04-06T10:51:50;10.75;;;5.18;;
29854;SDS011;16733;48.738;9.106;2023-04-06T10:54:18;8.05;;;4.57;;
29854;SDS011;16733;48.738;9.106;2023-04-06T11:00:08;8.27;;;5.15;;
29854;SDS011;16733;48.738;9.106;2023-04-06T11:02:37;8.23;;;4.38;;
29854;SDS011;16733;48.738;9.106;2023-04-06T11:05:03;10.07;;;4.82;;
29854;SDS011;16733;48.738;9.106;2023-04-06T11:07:29;9.57;;;5.10;;
29854;SDS011;16733;48.738;9.106;2023-04-06T11:09:55;9.25;;;5.82;;
29854;SDS011;16733;48.738;9.106;2023-04-06T11:12:25;9.05;;;4.80;;
29854;SDS011;16733;48.738;9.106;2023-04-06T11:14:55;6.82;;;4.88;;
29854;SDS011;16733;48.738;9.106;2023-04-06T11:17:26;7.43;;;4.97;;
29854;SDS011;16733;48.738;9.106;2023-04-06T11:23:21;10.35;;;5.03;;
29854;SDS011;16733;48.738;9.106;2023-04-06T11:25:52;8.43;;;4.55;;
29854;SDS011;16733;48.738;9.106;2023-04-06T11:28:18;7.15;;;4.60;;
29854;SDS011;16733;48.738;9.106;2023-04-06T11:30:44;10.02;;;4.80;;
29854;SDS011;16733;48.738;9.106;2023-04-06T11:33:11;8.32;;;4.38;;
29854;SDS011;16733;48.738;9.106;2023-04-06T11:35:46;7.32;;;4.43;;
29854;SDS011;16733;48.738;9.106;2023-04-06T11:38:12;6.63;;;4.57;;
29854;SDS011;16733;48.738;9.106;2023-04-06T11:40:37;10.38;;;4.38;;
29854;SDS011;16733;48.738;9.106;2023-04-06T11:43:03;7.10;;;4.65;;
29854;SDS011;16733;48.738;9.106;2023-04-06T11:45:39;9.20;;;4.40;;
29854;SDS011;16733;48.738;9.106;2023-04-06T11:48:16;6.68;;;4.13;;
29854;SDS011;16733;48.738;9.106;2023-04-06T11:50:45;7.10;;;4.50;;
29854;SDS011;16733;48.738;9.106;2023-04-06T11:53:12;9.73;;;4.28;;
29854;SDS011;16733;48.738;9.106;2023-04-06T11:59:00;6.43;;;4.22;;
29854;SDS011;16733;48.738;9.106;2023-04-06T12:01:26;7.90;;;4.20;;
29854;SDS011;16733;48.738;9.106;2023-04-06T12:03:51;10.68;;;4.50;;
29854;SDS011;16733;48.738;9.106;2023-04-06T12:06:17;6.65;;;4.05;;
29854;SDS011;16733;48.738;9.106;2023-04-06T12:08:43;8.80;;;4.20;;
29854;SDS011;16733;48.738;9.106;2023-04-06T12:11:10;7.45;;;4.00;;
29854;SDS011;16733;48.738;9.106;2023-04-06T12:13:36;8.48;;;4.13;;
29854;SDS011;16733;48.738;9.106;2023-04-06T12:19:24;8.10;;;4.78;;
29854;SDS011;16733;48.738;9.106;2023-04-06T12:21:51;7.57;;;4.80;;
29854;SDS011;16733;48.738;9.106;2023-04-06T12:27:43;6.18;;;3.85;;
29854;SDS011;16733;48.738;9.106;2023-04-06T12:33:31;7.90;;;3.88;;
29854;SDS011;16733;48.738;9.106;2023-04-06T12:39:19;7.82;;;3.88;;
29854;SDS011;16733;48.738;9.106;2023-04-06T12:48:30;10.20;;;4.70;;
29854;SDS011;16733;48.738;9.106;2023-04-06T12:50:57;8.98;;;4.82;;
29854;SDS011;16733;48.738;9.106;2023-04-06T12:56:46;8.50;;;4.32;;
29854;SDS011;16733;48.738;9.106;2023-04-06T12:59:12;12.48;;;4.57;;
29854;SDS011;16733;48.738;9.106;2023-04-06T13:01:37;8.93;;;4.05;;
29854;SDS011;16733;48.738;9.106;2023-04-06T13:04:03;6.75;;;3.72;;
29854;SDS011;16733;48.738;9.106;2023-04-06T13:06:28;7.15;;;4.20;;
29854;SDS011;16733;48.738;9.106;2023-04-06T13:08:55;7.78;;;4.00;;
29854;SDS011;16733;48.738;9.106;2023-04-06T13:11:20;10.65;;;3.83;;
29854;SDS011;16733;48.738;9.106;2023-04-06T13:13:48;9.25;;;4.25;;
29854;SDS011;16733;48.738;9.106;2023-04-06T13:16:14;9.13;;;4.03;;
29854;SDS011;16733;48.738;9.106;2023-04-06T13:18:40;11.48;;;3.72;;
29854;SDS011;16733;48.738;9.106;2023-04-06T13:21:06;7.75;;;4.07;;
29854;SDS011;16733;48.738;9.106;2023-04-06T13:23:32;8.23;;;3.83;;
29854;SDS011;16733;48.738;9.106;2023-04-06T13:28:24;7.35;;;4.10;;
29854;SDS011;16733;48.738;9.106;2023-04-06T13:30:51;8.30;;;4.07;;
29854;SDS011;16733;48.738;9.106;2023-04-06T13:33:16;7.55;;;4.25;;
29854;SDS011;16733;48.738;9.106;2023-04-06T13:35:45;7.05;;;4.10;;
29854;SDS011;16733;48.738;9.106;2023-04-06T13:38:11;9.23;;;4.55;;
29854;SDS011;16733;48.738;9.106;2023-04-06T13:40:41;7.55;;;3.80;;
29854;SDS011;16733;48.738;9.106;2023-04-06T13:43:07;4.72;;;3.65;;
29854;SDS011;16733;48.738;9.106;2023-04-06T13:48:55;8.10;;;3.70;;
29854;SDS011;16733;48.738;9.106;2023-04-06T13:51:21;5.13;;;3.42;;
29854;SDS011;16733;48.738;9.106;2023-04-06T13:53:46;6.55;;;3.63;;
29854;SDS011;16733;48.738;9.106;2023-04-06T13:56:51;7.78;;;3.70;;
29854;SDS011;16733;48.738;9.106;2023-04-06T14:06:00;8.30;;;4.35;;
29854;SDS011;16733;48.738;9.106;2023-04-06T14:08:34;6.35;;;3.90;;
29854;SDS011;16733;48.738;9.106;2023-04-06T14:10:59;10.27;;;4.22;;
29854;SDS011;16733;48.738;9.106;2023-04-06T14:13:25;5.50;;;3.55;;
29854;SDS011;16733;48.738;9.106;2023-04-06T14:15:54;7.15;;;3.65;;
29854;SDS011;16733;48.738;9.106;2023-04-06T14:18:20;7.72;;;3.60;;
29854;SDS011;16733;48.738;9.106;2023-04-06T14:20:53;6.20;;;3.17;;
29854;SDS011;16733;48.738;9.106;2023-04-06T14:23:22;6.10;;;3.67;;
29854;SDS011;16733;48.738;9.106;2023-04-06T14:25:50;6.25;;;3.67;;
29854;SDS011;16733;48.738;9.106;2023-04-06T14:28:16;6.60;;;3.67;;
29854;SDS011;16733;48.738;9.106;2023-04-06T14:30:42;6.43;;;3.85;;
29854;SDS011;16733;48.738;9.106;2023-04-06T14:33:08;6.75;;;3.67;;
29854;SDS011;16733;48.738;9.106;2023-04-06T14:38:59;9.63;;;3.58;;
29854;SDS011;16733;48.738;9.106;2023-04-06T14:41:25;6.88;;;3.97;;
29854;SDS011;16733;48.738;9.106;2023-04-06T14:43:50;6.72;;;3.25;;
29854;SDS011;16733;48.738;9.106;2023-04-06T14:46:17;4.68;;;3.30;;
29854;SDS011;16733;48.738;9.106;2023-04-06T14:48:43;6.53;;;3.63;;
29854;SDS011;16733;48.738;9.106;2023-04-06T14:51:12;6.20;;;3.00;;
29854;SDS011;16733;48.738;9.106;2023-04-06T14:53:37;4.38;;;3.00;;
29854;SDS011;16733;48.738;9.106;2023-04-06T14:56:03;5.78;;;2.95;;
29854;SDS011;16733;48.738;9.106;2023-04-06T14:58:29;5.25;;;2.83;;
29854;SDS011;16733;48.738;9.106;2023-04-06T15:00:55;3.75;;;2.90;;
29854;SDS011;16733;48.738;9.106;2023-04-06T15:03:28;5.28;;;2.60;;
29854;SDS011;16733;48.738;9.106;2023-04-06T15:05:55;4.30;;;3.00;;
29854;SDS011;16733;48.738;9.106;2023-04-06T15:08:21;6.22;;;3.03;;
29854;SDS011;16733;48.738;9.106;2023-04-06T15:10:48;5.50;;;3.00;;
29854;SDS011;16733;48.738;9.106;2023-04-06T15:16:38;4.22;;;2.97;;
29854;SDS011;16733;48.738;9.106;2023-04-06T15:19:04;5.75;;;3.17;;
29854;SDS011;16733;48.738;9.106;2023-04-06T15:21:30;6.25;;;3.42;;
29854;SDS011;16733;48.738;9.106;2023-04-06T15:23:57;5.35;;;3.03;;
29854;SDS011;16733;48.738;9.106;2023-04-06T15:26:22;5.75;;;3.53;;
29854;SDS011;16733;48.738;9.106;2023-04-06T15:28:48;6.20;;;3.50;;
29854;SDS011;16733;48.738;9.106;2023-04-06T15:31:17;7.03;;;3.03;;
29854;SDS011;16733;48.738;9.106;2023-04-06T15:37:08;5.95;;;3.15;;
29854;SDS011;16733;48.738;9.106;2023-04-06T15:39:34;5.90;;;3.08;;
29854;SDS011;16733;48.738;9.106;2023-04-06T15:42:01;4.30;;;2.95;;
29854;SDS011;16733;48.738;9.106;2023-04-06T15:44:27;7.70;;;4.22;;
29854;SDS011;16733;48.738;9.106;2023-04-06T15:46:53;6.32;;;3.15;;
29854;SDS011;16733;48.738;9.106;2023-04-06T15:49:19;6.82;;;3.22;;
29854;SDS011;16733;48.738;9.106;2023-04-06T15:51:46;4.70;;;2.88;;
29854;SDS011;16733;48.738;9.106;2023-04-06T15:54:13;6.07;;;3.22;;
29854;SDS011;16733;48.738;9.106;2023-04-06T15:56:38;8.35;;;4.00;;
29854;SDS011;16733;48.738;9.106;2023-04-06T16:02:26;7.22;;;4.47;;
29854;SDS011;16733;48.738;9.106;2023-04-06T16:05:01;10.43;;;4.57;;
29854;SDS011;16733;48.738;9.106;2023-04-06T16:07:45;8.00;;;4.80;;
29854;SDS011;16733;48.738;9.106;2023-04-06T16:10:10;8.85;;;4.90;;
29854;SDS011;16733;48.738;9.106;2023-04-06T16:12:36;9.60;;;5.13;;
29854;SDS011;16733;48.738;9.106;2023-04-06T16:15:02;8.63;;;5.55;;
29854;SDS011;16733;48.738;9.106;2023-04-06T16:17:28;14.38;;;6.03;;
29854;SDS011;16733;48.738;9.106;2023-04-06T16:19:53;11.02;;;6.47;;
29854;SDS011;16733;48.738;9.106;2023-04-06T16:25:41;8.45;;;4.95;;
29854;SDS011;16733;48.738;9.106;2023-04-06T16:31:28;12.45;;;5.55;;
29854;SDS011;16733;48.738;9.106;2023-04-06T16:33:55;12.55;;;8.40;;
29854;SDS011;16733;48.738;9.106;2023-04-06T16:39:43;17.15;;;8.82;;
29854;SDS011;16733;48.738;9.106;2023-04-06T16:42:11;12.10;;;6.72;;
29854;SDS011;16733;48.738;9.106;2023-04-06T16:47:59;11.65;;;6.20;;
29854;SDS011;16733;48.738;9.106;2023-04-06T16:50:25;11.43;;;6.45;;
29854;SDS011;16733;48.738;9.106;2023-04-06T16:52:51;23.75;;;11.45;;
29854;SDS011;16733;48.738;9.106;2023-04-06T16:55:16;14.48;;;7.32;;
29854;SDS011;16733;48.738;9.106;2023-04-06T16:57:42;13.40;;;6.78;;
29854;SDS011;16733;48.738;9.106;2023-04-06T17:00:07;12.65;;;7.00;;
29854;SDS011;16733;48.738;9.106;2023-04-06T17:02:33;18.40;;;9.40;;
29854;SDS011;16733;48.738;9.106;2023-04-06T17:05:01;15.35;;;7.10;;
29854;SDS011;16733;48.738;9.106;2023-04-06T17:07:27;14.40;;;8.70;;
29854;SDS011;16733;48.738;9.106;2023-04-06T17:09:59;14.98;;;8.98;;
29854;SDS011;16733;48.738;9.106;2023-04-06T17:12:26;14.63;;;8.40;;
29854;SDS011;16733;48.738;9.106;2023-04-06T17:14:57;9.50;;;5.82;;
29854;SDS011;16733;48.738;9.106;2023-04-06T17:17:23;16.90;;;9.23;;
29854;SDS011;16733;48.738;9.106;2023-04-06T17:19:48;11.30;;;5.55;;
29854;SDS011;16733;48.738;9.106;2023-04-06T17:22:14;14.07;;;6.82;;
29854;SDS011;16733;48.738;9.106;2023-04-06T17:28:06;7.72;;;4.22;;
29854;SDS011;16733;48.738;9.106;2023-04-06T17:30:32;6.55;;;3.92;;
29854;SDS011;16733;48.738;9.106;2023-04-06T17:32:58;6.40;;;3.90;;
29854;SDS011;16733;48.738;9.106;2023-04-06T17:35:25;7.78;;;4.00;;
29854;SDS011;16733;48.738;9.106;2023-04-06T17:37:50;7.57;;;3.70;;
29854;SDS011;16733;48.738;9.106;2023-04-06T17:40:16;6.15;;;3.42;;
29854;SDS011;16733;48.738;9.106;2023-04-06T17:46:04;11.55;;;5.05;;
29854;SDS011;16733;48.738;9.106;2023-04-06T17:48:30;7.80;;;4.60;;
29854;SDS011;16733;48.738;9.106;2023-04-06T17:50:56;13.52;;;6.68;;
29854;SDS011;16733;48.738;9.106;2023-04-06T17:53:22;9.77;;;4.75;;
29854;SDS011;16733;48.738;9.106;2023-04-06T17:55:47;7.57;;;4.22;;
29854;SDS011;16733;48.738;9.106;2023-04-06T17:58:13;11.63;;;6.18;;
29854;SDS011;16733;48.738;9.106;2023-04-06T18:00:39;7.80;;;4.00;;
29854;SDS011;16733;48.738;9.106;2023-04-06T18:03:05;12.77;;;7.10;;
29854;SDS011;16733;48.738;9.106;2023-04-06T18:05:30;11.57;;;6.88;;
29854;SDS011;16733;48.738;9.106;2023-04-06T18:07:56;10.05;;;4.65;;
29854;SDS011;16733;48.738;9.106;2023-04-06T18:10:40;10.45;;;5.30;;
29854;SDS011;16733;48.738;9.106;2023-04-06T18:13:09;8.95;;;4.53;;
29854;SDS011;16733;48.738;9.106;2023-04-06T18:15:35;15.15;;;6.38;;
29854;SDS011;16733;48.738;9.106;2023-04-06T18:18:02;10.93;;;5.25;;
29854;SDS011;16733;48.738;9.106;2023-04-06T18:23:50;5.90;;;3.50;;
29854;SDS011;16733;48.738;9.106;2023-04-06T18:26:17;7.68;;;3.55;;
29854;SDS011;16733;48.738;9.106;2023-04-06T18:28:43;10.13;;;3.63;;
29854;SDS011;16733;48.738;9.106;2023-04-06T18:34:31;8.00;;;4.22;;
29854;SDS011;16733;48.738;9.106;2023-04-06T18:36:57;9.55;;;5.28;;
29854;SDS011;16733;48.738;9.106;2023-04-06T18:39:25;8.80;;;4.38;;
29854;SDS011;16733;48.738;9.106;2023-04-06T18:41:51;7.05;;;4.32;;
29854;SDS011;16733;48.738;9.106;2023-04-06T18:44:16;6.53;;;3.58;;
29854;SDS011;16733;48.738;9.106;2023-04-06T18:46:42;7.22;;;3.42;;
29854;SDS011;16733;48.738;9.106;2023-04-06T18:49:10;8.13;;;4.10;;
29854;SDS011;16733;48.738;9.106;2023-04-06T18:51:35;10.50;;;3.50;;